Time;durP1;ratioP1;P1;durP2;ratioP2;P2;SDS_P1;SDS_P2;PMS_P1;PMS_P2;Temp;Humidity;BMP_temperature;BMP_pressure;BME280_temperature;BME280_humidity;BME280_pressure;Samples;Min_cycle;Max_cycle;Signal;HPM_P1;HPM_P2
2023/01/18 00:01:00;;;;;;;0.80;0.80;;;-0.10;99.90;;;;;;5026930;27;20039;-87
2023/01/18 00:03:25;;;;;;;0.80;0.80;;;-0.10;99.90;;;;;;5020961;27;20088;-86
2023/01/18 00:05:53;;;;;;;0.80;0.80;;;0.00;99.90;;;;;;5041685;27;20111;-86
2023/01/18 00:08:19;;;;;;;0.80;0.80;;;0.00;99.90;;;;;;5037368;27;20043;-87
2023/01/18 00:10:45;;;;;;;0.90;0.90;;;-0.10;99.90;;;;;;5025846;27;20667;-87
2023/01/18 00:13:11;;;;;;;0.80;0.80;;;-0.10;99.90;;;;;;5043531;27;20047;-87
2023/01/18 00:15:43;;;;;;;0.80;0.80;;;0.00;99.90;;;;;;5014721;27;20617;-86
2023/01/18 00:18:08;;;;;;;0.80;0.80;;;-0.10;99.90;;;;;;5045732;27;20104;-87
2023/01/18 00:20:34;;;;;;;0.80;0.80;;;0.00;99.90;;;;;;5016603;27;20114;-86
2023/01/18 00:23:01;;;;;;;0.80;0.80;;;0.00;99.90;;;;;;5023374;28;20186;-86
2023/01/18 00:25:28;;;;;;;0.80;0.80;;;0.00;99.90;;;;;;5033767;27;20147;-87
2023/01/18 00:27:54;;;;;;;0.80;0.80;;;-0.10;99.90;;;;;;5037468;27;20075;-87
2023/01/18 00:30:24;;;;;;;0.80;0.80;;;0.00;99.90;;;;;;5015522;27;20051;-87
2023/01/18 00:32:55;;;;;;;0.80;0.80;;;-0.10;99.90;;;;;;5031445;27;20817;-87
2023/01/18 00:35:21;;;;;;;0.80;0.80;;;-0.10;99.90;;;;;;5017989;27;20557;-87
2023/01/18 00:37:48;;;;;;;0.80;0.80;;;-0.10;99.90;;;;;;5021656;27;20046;-87
2023/01/18 00:40:14;;;;;;;0.80;0.80;;;-0.10;99.90;;;;;;5035405;27;20051;-87
2023/01/18 00:45:25;;;;;;;0.80;0.80;;;-0.20;99.90;;;;;;5038940;27;20540;-87
2023/01/18 00:47:51;;;;;;;0.80;0.80;;;-0.20;99.90;;;;;;5028804;28;20575;-88
2023/01/18 00:50:21;;;;;;;0.80;0.80;;;-0.10;99.90;;;;;;5023902;28;20041;-87
2023/01/18 00:52:47;;;;;;;0.90;0.90;;;-0.20;99.90;;;;;;5027425;28;20078;-87
2023/01/18 00:55:15;;;;;;;0.80;0.80;;;-0.20;99.90;;;;;;5041065;28;20069;-87
2023/01/18 00:57:41;;;;;;;0.90;0.90;;;-0.10;99.90;;;;;;5022502;28;20116;-87
2023/01/18 01:00:10;;;;;;;0.80;0.80;;;-0.20;99.90;;;;;;5043966;28;20151;-87
2023/01/18 01:02:39;;;;;;;0.90;0.90;;;-0.20;99.90;;;;;;5032158;28;20315;-87
2023/01/18 01:08:20;;;;;;;0.80;0.80;;;-0.20;99.90;;;;;;5032340;28;20762;-86
2023/01/18 01:10:50;;;;;;;0.80;0.80;;;-0.20;99.90;;;;;;5029326;28;20051;-88
2023/01/18 01:27:16;;;;;;;0.80;0.80;;;-0.20;99.90;;;;;;5039629;28;20142;-87
2023/01/18 01:29:45;;;;;;;0.80;0.80;;;-0.30;99.90;;;;;;5041437;27;20218;-88
2023/01/18 01:32:13;;;;;;;0.80;0.80;;;-0.20;99.90;;;;;;5027485;27;20051;-88
2023/01/18 01:34:39;;;;;;;0.80;0.80;;;-0.30;99.90;;;;;;5042650;27;20537;-88
2023/01/18 01:37:05;;;;;;;0.80;0.80;;;-0.30;99.90;;;;;;5021047;27;20790;-87
2023/01/18 01:39:38;;;;;;;0.80;0.80;;;-0.30;99.90;;;;;;5035506;27;20043;-88
2023/01/18 01:42:04;;;;;;;0.80;0.80;;;-0.40;99.90;;;;;;5029836;27;20400;-88
2023/01/18 01:44:40;;;;;;;0.80;0.80;;;-0.40;99.90;;;;;;5020375;27;20243;-88
2023/01/18 01:47:41;;;;;;;0.80;0.80;;;-0.50;99.90;;;;;;5035897;27;20034;-89
2023/01/18 01:50:24;;;;;;;0.80;0.80;;;-0.50;99.90;;;;;;5045800;27;20561;-88
2023/01/18 01:52:50;;;;;;;0.80;0.80;;;-0.50;99.90;;;;;;5047399;27;20768;-90
2023/01/18 01:55:31;;;;;;;0.85;0.85;;;-0.40;99.90;;;;;;5035637;27;20047;-89
2023/01/18 01:58:13;;;;;;;0.80;0.80;;;-0.50;99.90;;;;;;5037016;27;20872;-89
2023/01/18 02:00:42;;;;;;;0.90;0.90;;;-0.50;99.90;;;;;;5037283;27;20624;-90
2023/01/18 02:03:11;;;;;;;0.80;0.80;;;-0.40;99.90;;;;;;5036342;27;20146;-89
2023/01/18 02:05:51;;;;;;;0.80;0.80;;;-0.50;99.90;;;;;;5056560;27;20887;-89
2023/01/18 02:08:23;;;;;;;0.90;0.90;;;-0.40;99.90;;;;;;5035752;27;20130;-88
2023/01/18 02:10:53;;;;;;;0.80;0.80;;;-0.50;99.90;;;;;;5028151;27;20039;-89
2023/01/18 02:13:21;;;;;;;0.80;0.80;;;-0.50;99.90;;;;;;5051610;27;20483;-89
2023/01/18 02:16:17;;;;;;;0.80;0.80;;;-0.60;99.90;;;;;;5056636;27;20113;-89
2023/01/18 02:18:53;;;;;;;0.80;0.80;;;-0.60;99.90;;;;;;5052170;27;20149;-89
2023/01/18 02:21:41;;;;;;;0.80;0.80;;;-0.50;99.90;;;;;;5035013;27;20419;-90
2023/01/18 02:24:46;;;;;;;0.80;0.80;;;-0.50;99.90;;;;;;5035030;27;20793;-90
2023/01/18 02:27:26;;;;;;;0.80;0.80;;;-0.50;99.90;;;;;;5075642;27;20405;-89
2023/01/18 02:30:04;;;;;;;0.80;0.80;;;-0.50;99.90;;;;;;5072364;27;20055;-89
2023/01/18 02:32:55;;;;;;;0.80;0.80;;;-0.60;99.90;;;;;;5066993;27;20051;-88
2023/01/18 02:35:31;;;;;;;0.80;0.80;;;-0.70;99.90;;;;;;5032469;27;20043;-90
2023/01/18 02:38:03;;;;;;;0.80;0.80;;;-0.70;99.90;;;;;;5039388;27;20522;-89
2023/01/18 02:41:06;;;;;;;0.80;0.80;;;-0.60;99.90;;;;;;5036935;27;20476;-89
2023/01/18 02:46:34;;;;;;;0.80;0.80;;;-0.70;99.90;;;;;;5054859;27;20491;-89
2023/01/18 02:49:07;;;;;;;0.80;0.80;;;-0.70;99.90;;;;;;5046074;27;20035;-90
2023/01/18 02:51:34;;;;;;;0.82;0.82;;;-0.70;99.90;;;;;;5054276;27;20077;-89
2023/01/18 02:54:02;;;;;;;0.80;0.80;;;-0.80;99.90;;;;;;5038341;27;20041;-91
2023/01/18 02:56:34;;;;;;;0.80;0.80;;;-0.70;99.90;;;;;;5075297;27;20414;-90
2023/01/18 02:59:15;;;;;;;0.80;0.80;;;-0.80;99.90;;;;;;5043282;27;20054;-90
2023/01/18 03:02:13;;;;;;;0.80;0.80;;;-0.80;99.90;;;;;;5062240;27;20351;-90
2023/01/18 03:04:52;;;;;;;0.80;0.80;;;-0.80;99.90;;;;;;5027508;27;20127;-90
2023/01/18 03:07:40;;;;;;;0.80;0.80;;;-0.90;99.90;;;;;;5035400;27;20042;-90
2023/01/18 03:10:09;;;;;;;0.80;0.80;;;-0.90;99.90;;;;;;5041724;27;20051;-91
2023/01/18 03:12:46;;;;;;;0.80;0.80;;;-0.90;99.90;;;;;;5043047;27;20050;-90
2023/01/18 03:15:20;;;;;;;0.80;0.80;;;-0.90;99.90;;;;;;5041204;27;20129;-91
2023/01/18 03:18:17;;;;;;;0.80;0.80;;;-0.80;99.90;;;;;;5046544;27;20166;-89
2023/01/18 03:20:51;;;;;;;0.80;0.80;;;-1.00;99.90;;;;;;5056543;27;20046;-91
2023/01/18 03:23:39;;;;;;;0.80;0.80;;;-0.90;99.90;;;;;;5042874;27;20448;-90
2023/01/18 03:26:27;;;;;;;;;;;;;;;;;;;;;
2023/01/18 03:35:13;;;;;;;0.90;0.90;;;-1.00;99.90;;;;;;5056926;27;20047;-91
2023/01/18 03:37:44;;;;;;;0.80;0.80;;;-0.90;99.90;;;;;;5056254;27;20078;-90
2023/01/18 03:40:27;;;;;;;0.80;0.80;;;-0.90;99.90;;;;;;5046969;27;20085;-91
2023/01/18 03:43:16;;;;;;;0.80;0.80;;;-0.80;99.90;;;;;;5039843;27;20070;-90
2023/01/18 03:45:51;;;;;;;0.90;0.90;;;-0.80;99.90;;;;;;5045066;27;20047;-90
2023/01/18 03:48:25;;;;;;;0.90;0.90;;;-1.00;99.90;;;;;;5038804;27;20066;-91
2023/01/18 03:50:52;;;;;;;;;;;-1.00;99.90;;;;;;5046860;27;20420;-91
2023/01/18 03:53:50;;;;;;;0.80;0.80;;;-0.90;99.90;;;;;;5040690;27;19923;-91
2023/01/18 03:56:22;;;;;;;0.82;0.82;;;-1.00;99.90;;;;;;5053278;27;20051;-92
2023/01/18 03:58:51;;;;;;;0.85;0.85;;;-1.00;99.90;;;;;;5036083;27;20066;-91
2023/01/18 04:01:19;;;;;;;0.80;0.80;;;-1.00;99.90;;;;;;5044011;27;20178;-91
2023/01/18 04:03:45;;;;;;;0.80;0.80;;;-1.00;99.90;;;;;;5057960;27;20051;-91
2023/01/18 04:06:14;;;;;;;0.90;0.90;;;-1.00;99.90;;;;;;5040735;27;20521;-91
2023/01/18 04:08:40;;;;;;;0.80;0.80;;;-1.10;99.90;;;;;;5024617;27;20481;-91
2023/01/18 04:11:06;;;;;;;0.80;0.80;;;-1.10;99.90;;;;;;5041394;27;20447;-90
2023/01/18 04:13:37;;;;;;;0.80;0.80;;;-0.90;99.90;;;;;;5038504;27;20565;-91
2023/01/18 04:16:03;;;;;;;0.80;0.80;;;-1.00;99.90;;;;;;5036887;27;20058;-91
2023/01/18 04:18:35;;;;;;;0.88;0.88;;;-1.00;99.90;;;;;;5043520;27;20043;-91
2023/01/18 04:21:00;;;;;;;0.80;0.80;;;-1.10;99.90;;;;;;5037082;27;20463;-91
2023/01/18 04:23:30;;;;;;;0.80;0.80;;;-1.00;99.90;;;;;;5026995;27;20051;-92
2023/01/18 04:25:55;;;;;;;0.80;0.80;;;-0.90;99.90;;;;;;5041985;27;20349;-92
2023/01/18 04:28:24;;;;;;;0.80;0.80;;;-1.10;99.90;;;;;;5047768;27;20611;-91
2023/01/18 04:30:51;;;;;;;0.80;0.80;;;-0.90;99.90;;;;;;5037759;27;20603;-92
2023/01/18 04:33:21;;;;;;;0.80;0.80;;;-1.00;99.90;;;;;;5040483;27;20042;-92
2023/01/18 04:35:48;;;;;;;0.90;0.90;;;-1.00;99.90;;;;;;5041656;27;20131;-90
2023/01/18 04:38:17;;;;;;;0.80;0.80;;;-0.90;99.90;;;;;;5024104;27;20204;-91
2023/01/18 04:40:46;;;;;;;0.80;0.80;;;-0.90;99.90;;;;;;5046982;27;20058;-91
2023/01/18 04:43:12;;;;;;;0.80;0.80;;;-0.90;99.90;;;;;;5038966;27;20047;-90
2023/01/18 04:45:38;;;;;;;0.80;0.80;;;-0.90;99.90;;;;;;5036875;27;20423;-90
2023/01/18 04:48:04;;;;;;;0.80;0.80;;;-0.90;99.90;;;;;;5027513;27;20043;-91
2023/01/18 04:50:32;;;;;;;0.80;0.80;;;-0.90;99.90;;;;;;5038457;27;20068;-90
2023/01/18 04:53:01;;;;;;;0.80;0.80;;;-0.90;99.90;;;;;;5039380;27;20058;-90
2023/01/18 04:55:30;;;;;;;0.88;0.88;;;-0.80;99.90;;;;;;5009584;27;20047;-89
2023/01/18 04:58:01;;;;;;;0.90;0.90;;;-0.80;99.90;;;;;;5030254;27;20092;-89
2023/01/18 05:00:27;;;;;;;0.80;0.80;;;-0.80;99.90;;;;;;5019697;27;20047;-90
2023/01/18 05:02:55;;;;;;;0.80;0.80;;;-0.80;99.90;;;;;;5036640;27;20359;-90
2023/01/18 05:05:24;;;;;;;0.80;0.80;;;-0.70;99.90;;;;;;5042259;27;20050;-90
2023/01/18 05:07:49;;;;;;;0.80;0.80;;;-0.80;99.90;;;;;;5035684;27;20035;-89
2023/01/18 05:10:15;;;;;;;0.80;0.80;;;-0.70;99.90;;;;;;5040023;27;20409;-90
2023/01/18 05:12:41;;;;;;;0.80;0.80;;;-0.60;99.90;;;;;;5057703;27;20356;-89
2023/01/18 05:15:23;;;;;;;0.90;0.90;;;-0.70;99.90;;;;;;5041311;27;20549;-91
2023/01/18 05:17:51;;;;;;;0.80;0.80;;;-0.70;99.90;;;;;;5038502;27;20119;-91
2023/01/18 05:20:17;;;;;;;0.90;0.90;;;-0.70;99.90;;;;;;5046048;27;20491;-91
2023/01/18 05:22:43;;;;;;;0.90;0.90;;;-0.90;99.90;;;;;;5039562;27;20090;-92
2023/01/18 05:25:12;;;;;;;0.80;0.80;;;-0.90;99.90;;;;;;5038280;27;20059;-91
2023/01/18 05:27:38;;;;;;;0.80;0.80;;;-1.00;99.90;;;;;;5049202;27;20045;-91
2023/01/18 05:30:12;;;;;;;0.90;0.90;;;-1.00;99.90;;;;;;5046462;27;20078;-91
2023/01/18 05:32:43;;;;;;;0.90;0.90;;;-1.10;99.90;;;;;;5017933;27;20066;-91
2023/01/18 05:35:09;;;;;;;0.90;0.90;;;-1.10;99.90;;;;;;5025195;27;20634;-92
2023/01/18 05:37:35;;;;;;;0.90;0.90;;;-1.10;99.90;;;;;;5027796;27;20420;-90
2023/01/18 05:40:01;;;;;;;0.82;0.82;;;-1.10;99.90;;;;;;5043000;27;20077;-90
2023/01/18 05:42:26;;;;;;;0.90;0.90;;;-1.10;99.90;;;;;;5020876;27;20050;-91
2023/01/18 05:44:52;;;;;;;0.80;0.80;;;-1.10;99.90;;;;;;5041426;27;20488;-91
2023/01/18 05:47:20;;;;;;;0.90;0.90;;;-1.10;99.90;;;;;;5014234;27;20434;-90
2023/01/18 05:49:46;;;;;;;0.82;0.82;;;-1.10;99.90;;;;;;5014494;27;20539;-89
2023/01/18 05:52:15;;;;;;;0.90;0.90;;;-1.10;99.90;;;;;;4990008;27;20047;-89
2023/01/18 05:54:41;;;;;;;0.90;0.90;;;-1.20;99.90;;;;;;5020617;27;20558;-91
2023/01/18 05:57:10;;;;;;;0.90;0.90;;;-1.20;99.90;;;;;;5018284;27;20044;-90
2023/01/18 05:59:41;;;;;;;0.80;0.80;;;-1.20;99.90;;;;;;5022071;27;20058;-90
2023/01/18 06:02:10;;;;;;;0.90;0.90;;;-1.10;99.90;;;;;;5001931;27;20065;-91
2023/01/18 06:04:39;;;;;;;0.90;0.90;;;-1.20;99.90;;;;;;5039108;27;20499;-90
2023/01/18 06:07:09;;;;;;;0.90;0.90;;;-1.20;99.90;;;;;;5027526;27;20092;-90
2023/01/18 06:09:34;;;;;;;0.90;0.90;;;-1.20;99.90;;;;;;5017774;27;20103;-90
2023/01/18 06:12:00;;;;;;;0.90;0.90;;;-1.20;99.90;;;;;;5047554;27;20050;-90
2023/01/18 06:14:26;;;;;;;0.80;0.80;;;-1.20;99.90;;;;;;5026102;27;20364;-91
2023/01/18 06:16:52;;;;;;;0.80;0.80;;;-1.20;99.90;;;;;;5025920;27;20085;-90
2023/01/18 06:19:18;;;;;;;0.80;0.80;;;-1.20;99.90;;;;;;5013530;27;20058;-90
2023/01/18 06:21:44;;;;;;;0.80;0.80;;;-1.10;99.90;;;;;;5025455;27;20195;-90
2023/01/18 06:24:13;;;;;;;0.90;0.90;;;-1.20;99.90;;;;;;5013560;27;20850;-89
2023/01/18 06:26:39;;;;;;;0.80;0.80;;;-1.10;99.90;;;;;;5026727;27;20740;-91
2023/01/18 06:29:07;;;;;;;0.88;0.88;;;-1.10;99.90;;;;;;5027756;27;20040;-92
2023/01/18 06:31:35;;;;;;;0.90;0.90;;;-1.00;99.90;;;;;;5048693;27;20232;-89
2023/01/18 06:34:08;;;;;;;0.90;0.90;;;-1.20;99.90;;;;;;5060254;27;20050;-91
2023/01/18 06:36:38;;;;;;;0.90;0.90;;;-1.20;99.90;;;;;;5053345;27;20081;-90
2023/01/18 06:39:04;;;;;;;0.80;0.80;;;-1.20;99.90;;;;;;5030784;27;20035;-90
2023/01/18 06:41:35;;;;;;;0.80;0.80;;;-1.20;99.90;;;;;;5047588;27;20057;-91
2023/01/18 06:44:01;;;;;;;0.80;0.80;;;-1.20;99.90;;;;;;5052806;27;20046;-92
2023/01/18 06:46:27;;;;;;;0.82;0.82;;;-1.10;99.90;;;;;;5051004;27;20039;-91
2023/01/18 06:48:55;;;;;;;0.90;0.90;;;-1.10;99.90;;;;;;5033905;27;20147;-91
2023/01/18 06:51:21;;;;;;;0.80;0.80;;;-1.20;99.90;;;;;;5047201;27;20047;-91
2023/01/18 06:53:48;;;;;;;0.90;0.90;;;-1.10;99.90;;;;;;5015611;27;20043;-90
2023/01/18 06:56:15;;;;;;;0.80;0.80;;;-1.10;99.90;;;;;;5047331;27;20407;-91
2023/01/18 06:58:41;;;;;;;0.80;0.80;;;-1.20;99.90;;;;;;5036746;27;20083;-91
2023/01/18 07:01:10;;;;;;;0.90;0.90;;;-1.20;99.90;;;;;;5046129;27;20507;-91
2023/01/18 07:03:36;;;;;;;0.90;0.90;;;-1.10;99.90;;;;;;5042423;27;20567;-90
2023/01/18 07:06:06;;;;;;;0.90;0.90;;;-1.20;99.90;;;;;;5024770;27;20090;-91
2023/01/18 07:08:37;;;;;;;0.80;0.80;;;-1.10;99.90;;;;;;5024366;27;20047;-90
2023/01/18 07:11:08;;;;;;;0.90;0.90;;;-1.20;99.90;;;;;;5063770;27;20046;-91
2023/01/18 07:13:35;;;;;;;0.80;0.80;;;-1.20;99.90;;;;;;5051140;27;20050;-92
2023/01/18 07:16:01;;;;;;;0.90;0.90;;;-1.10;99.90;;;;;;5049614;27;20042;-92
2023/01/18 07:18:28;;;;;;;0.90;0.90;;;-1.10;99.90;;;;;;5048206;27;20039;-90
2023/01/18 07:21:07;;;;;;;0.90;0.90;;;-1.00;99.90;;;;;;5054099;27;20851;-91
2023/01/18 07:23:34;;;;;;;0.88;0.88;;;-1.10;99.90;;;;;;5046946;27;20057;-91
2023/01/18 07:26:02;;;;;;;0.82;0.82;;;-1.10;99.90;;;;;;5047469;27;20047;-91
2023/01/18 07:28:32;;;;;;;0.80;0.80;;;-1.10;99.90;;;;;;5056430;27;20538;-92
2023/01/18 07:30:58;;;;;;;0.80;0.80;;;-1.10;99.90;;;;;;5053626;27;20507;-92
2023/01/18 07:33:24;;;;;;;0.80;0.80;;;-1.10;99.90;;;;;;5046906;27;20796;-91
2023/01/18 07:35:54;;;;;;;0.80;0.80;;;-1.00;99.90;;;;;;5042363;27;20042;-91
2023/01/18 07:38:20;;;;;;;0.90;0.90;;;-1.10;99.90;;;;;;5066167;27;20078;-90
2023/01/18 07:40:49;;;;;;;3.28;2.97;;;-1.10;99.90;;;;;;5050433;28;20059;-91
2023/01/18 07:43:17;;;;;;;0.90;0.90;;;-1.10;99.90;;;;;;5038992;27;20074;-90
2023/01/18 07:46:15;;;;;;;0.80;0.80;;;-1.10;99.90;;;;;;5026064;27;20051;-88
2023/01/18 07:48:44;;;;;;;0.80;0.80;;;-1.00;99.90;;;;;;5065207;27;20055;-90
2023/01/18 07:51:18;;;;;;;0.90;0.90;;;-0.90;99.90;;;;;;5049308;27;20816;-90
2023/01/18 07:53:44;;;;;;;0.85;0.85;;;-0.90;99.90;;;;;;5043971;27;20043;-91
2023/01/18 07:56:17;;;;;;;0.90;0.90;;;-0.90;99.90;;;;;;5044347;27;20044;-91
2023/01/18 07:58:47;;;;;;;0.90;0.90;;;-0.80;99.90;;;;;;5051685;27;20043;-92
2023/01/18 08:01:20;;;;;;;0.80;0.80;;;-0.80;99.90;;;;;;5046383;27;20120;-91
2023/01/18 08:03:53;;;;;;;0.90;0.90;;;-0.70;99.90;;;;;;5052126;27;20054;-90
2023/01/18 08:06:26;;;;;;;1.00;1.00;;;-0.80;99.90;;;;;;5047775;27;20199;-92
2023/01/18 08:08:58;;;;;;;0.80;0.80;;;-0.80;99.90;;;;;;5049269;28;20046;-92
2023/01/18 08:11:27;;;;;;;0.90;0.90;;;-0.60;99.90;;;;;;5064644;27;20387;-90
2023/01/18 08:13:58;;;;;;;0.88;0.88;;;-0.50;99.90;;;;;;5064090;27;20047;-91
2023/01/18 08:16:25;;;;;;;0.90;0.90;;;-0.50;99.90;;;;;;5050430;27;20040;-92
2023/01/18 08:18:51;;;;;;;0.80;0.80;;;-0.30;99.90;;;;;;5040574;28;20104;-93
2023/01/18 08:21:20;;;;;;;0.80;0.80;;;-0.30;99.90;;;;;;5046868;27;20503;-92
2023/01/18 08:23:46;;;;;;;0.80;0.80;;;-0.30;99.90;;;;;;5041855;27;20143;-94
2023/01/18 08:26:13;;;;;;;0.80;0.80;;;-0.30;99.90;;;;;;5052711;27;20637;-92
2023/01/18 08:28:43;;;;;;;0.80;0.80;;;-0.10;99.90;;;;;;5039849;27;20157;-91
2023/01/18 08:31:18;;;;;;;0.80;0.80;;;-0.10;99.90;;;;;;5051756;27;20047;-92
2023/01/18 08:33:51;;;;;;;0.80;0.80;;;-0.10;99.90;;;;;;5051345;27;20893;-93
2023/01/18 08:36:30;;;;;;;0.80;0.80;;;0.00;99.90;;;;;;5061727;27;20108;-92
2023/01/18 08:38:58;;;;;;;0.80;0.80;;;0.00;99.90;;;;;;5049899;27;20097;-92
2023/01/18 08:41:29;;;;;;;0.80;0.80;;;0.10;99.90;;;;;;5041436;27;20054;-93
2023/01/18 08:43:56;;;;;;;0.80;0.80;;;0.10;99.90;;;;;;5041884;28;20062;-91
2023/01/18 08:46:31;;;;;;;0.80;0.80;;;0.20;99.90;;;;;;5056845;27;20563;-91
2023/01/18 08:49:00;;;;;;;0.80;0.80;;;0.20;99.90;;;;;;5040751;28;20462;-91
2023/01/18 08:51:32;;;;;;;0.80;0.80;;;0.30;99.90;;;;;;5051419;28;20491;-94
2023/01/18 08:53:58;;;;;;;0.77;0.77;;;0.50;99.90;;;;;;5040632;28;20213;-88
2023/01/18 08:56:43;;;;;;;0.80;0.80;;;0.60;99.90;;;;;;5046011;28;20046;-93
2023/01/18 08:59:14;;;;;;;0.80;0.80;;;0.60;99.90;;;;;;5055943;28;20707;-91
2023/01/18 09:01:40;;;;;;;0.80;0.80;;;0.70;99.90;;;;;;5050770;28;20051;-91
2023/01/18 09:04:06;;;;;;;0.82;0.82;;;0.70;99.90;;;;;;5037326;28;20054;-92
2023/01/18 09:06:43;;;;;;;0.80;0.80;;;0.80;99.90;;;;;;5035604;28;20050;-90
2023/01/18 09:09:10;;;;;;;0.80;0.80;;;0.90;99.90;;;;;;5048587;28;20350;-93
2023/01/18 09:11:50;;;;;;;0.80;0.80;;;1.00;99.90;;;;;;5069424;28;20904;-91
2023/01/18 09:14:19;;;;;;;0.80;0.80;;;1.10;99.90;;;;;;5055041;28;20043;-91
2023/01/18 09:17:34;;;;;;;;;;;;;;;;;;;;;
2023/01/18 09:20:42;;;;;;;;;;;;;;;;;;;;;
2023/01/18 09:23:13;;;;;;;0.80;0.80;;;1.40;99.90;;;;;;5080809;28;20062;-91
2023/01/18 09:25:39;;;;;;;0.80;0.80;;;1.50;99.90;;;;;;5048723;28;20055;-90
2023/01/18 09:28:05;;;;;;;0.80;0.80;;;1.60;99.90;;;;;;5057354;28;20504;-90
2023/01/18 09:30:37;;;;;;;0.80;0.80;;;1.70;99.90;;;;;;5025286;28;20170;-94
2023/01/18 09:33:05;;;;;;;0.80;0.80;;;1.80;99.90;;;;;;5073284;28;20079;-94
2023/01/18 09:35:35;;;;;;;0.80;0.80;;;1.80;99.90;;;;;;5058200;28;20318;-92
2023/01/18 09:38:18;;;;;;;;;;;;;;;;;;;;;
2023/01/18 09:40:56;;;;;;;0.80;0.80;;;2.00;99.90;;;;;;5073870;28;20205;-95
2023/01/18 09:50:52;;;;;;;0.80;0.80;;;2.20;99.90;;;;;;4949893;28;20785;-88
2023/01/18 09:53:46;;;;;;;0.80;0.80;;;2.30;99.90;;;;;;4985059;28;20548;-95
2023/01/18 09:57:06;;;;;;;0.80;0.80;;;2.40;99.90;;;;;;5056148;27;20565;-94
2023/01/18 10:03:49;;;;;;;0.73;0.73;;;2.40;99.90;;;;;;5001022;27;20044;-94
2023/01/18 10:09:48;;;;;;;0.80;0.80;;;2.60;99.90;;;;;;5023184;28;20063;-94
2023/01/18 10:12:49;;;;;;;0.80;0.80;;;2.60;99.90;;;;;;5019157;28;20584;-96
2023/01/18 10:15:23;;;;;;;0.77;0.77;;;2.60;99.90;;;;;;5015605;28;20052;-94
2023/01/18 10:17:59;;;;;;;0.80;0.80;;;2.70;99.90;;;;;;5017305;28;20074;-91
2023/01/18 10:20:39;;;;;;;0.80;0.80;;;2.60;99.90;;;;;;5022455;27;20120;-93
2023/01/18 10:23:19;;;;;;;0.80;0.80;;;2.70;99.90;;;;;;5060397;27;20142;-94
2023/01/18 10:25:52;;;;;;;0.80;0.80;;;2.70;99.90;;;;;;5052131;27;20113;-90
2023/01/18 10:28:52;;;;;;;0.80;0.80;;;2.70;99.90;;;;;;5074023;27;20088;-94
2023/01/18 10:31:34;;;;;;;0.80;0.80;;;2.80;99.90;;;;;;5079443;27;20047;-94
2023/01/18 10:34:03;;;;;;;0.80;0.80;;;2.80;99.90;;;;;;5048567;27;20051;-91
2023/01/18 10:36:38;;;;;;;0.80;0.80;;;2.80;99.90;;;;;;5045297;27;20077;-95
2023/01/18 10:39:33;;;;;;;0.85;0.85;;;2.70;99.90;;;;;;5050193;27;20055;-93
2023/01/18 10:42:02;;;;;;;0.80;0.80;;;2.80;99.90;;;;;;5041377;27;20793;-91
2023/01/18 10:44:28;;;;;;;0.70;0.70;;;2.90;99.90;;;;;;5046338;27;20047;-90
2023/01/18 10:47:05;;;;;;;0.80;0.80;;;3.00;99.90;;;;;;5048954;27;20163;-90
2023/01/18 10:49:37;;;;;;;0.80;0.80;;;3.00;99.90;;;;;;5063431;27;20742;-91
2023/01/18 10:52:25;;;;;;;0.80;0.80;;;3.00;99.90;;;;;;5064284;27;20115;-91
2023/01/18 10:54:57;;;;;;;0.80;0.80;;;3.10;99.90;;;;;;5041527;27;20103;-90
2023/01/18 10:57:27;;;;;;;0.80;0.80;;;3.10;99.90;;;;;;5064772;27;20043;-89
2023/01/18 10:59:53;;;;;;;0.80;0.80;;;3.10;99.90;;;;;;5040050;27;20055;-90
2023/01/18 11:02:29;;;;;;;0.80;0.80;;;3.20;99.90;;;;;;5062072;27;20511;-89
2023/01/18 11:05:00;;;;;;;0.80;0.80;;;3.20;99.90;;;;;;5048810;27;20051;-89
2023/01/18 11:07:27;;;;;;;0.80;0.80;;;3.30;99.90;;;;;;5055912;27;20560;-90
2023/01/18 11:09:58;;;;;;;0.80;0.80;;;3.40;99.90;;;;;;5035826;27;20485;-89
2023/01/18 11:12:33;;;;;;;0.80;0.80;;;3.40;99.90;;;;;;5041297;27;20075;-88
2023/01/18 11:15:21;;;;;;;0.70;0.70;;;3.40;99.90;;;;;;5042588;27;20039;-88
2023/01/18 11:17:54;;;;;;;0.80;0.80;;;3.50;99.90;;;;;;5062653;27;20146;-89
2023/01/18 11:20:24;;;;;;;0.80;0.80;;;3.60;99.90;;;;;;5036193;27;20054;-89
2023/01/18 11:23:00;;;;;;;0.80;0.80;;;3.60;99.90;;;;;;5036467;27;20055;-89
2023/01/18 11:25:53;;;;;;;0.80;0.80;;;3.70;99.90;;;;;;5035689;27;20048;-90
2023/01/18 11:28:21;;;;;;;0.80;0.80;;;3.70;99.90;;;;;;5042273;27;20508;-90
2023/01/18 11:30:52;;;;;;;0.80;0.80;;;3.80;99.90;;;;;;5048980;27;20558;-89
2023/01/18 11:33:20;;;;;;;0.80;0.80;;;3.80;99.90;;;;;;5048300;27;20044;-88
2023/01/18 11:35:53;;;;;;;0.80;0.80;;;3.90;99.90;;;;;;5049722;27;20116;-88
2023/01/18 11:38:19;;;;;;;0.80;0.80;;;4.00;99.90;;;;;;5039738;27;20139;-88
2023/01/18 11:40:44;;;;;;;0.73;0.73;;;4.10;99.90;;;;;;5021354;27;20739;-86
2023/01/18 11:43:21;;;;;;;0.70;0.70;;;4.10;99.90;;;;;;5042479;27;20058;-87
2023/01/18 11:45:58;;;;;;;0.70;0.70;;;4.30;99.90;;;;;;5055811;27;20493;-87
2023/01/18 11:48:48;;;;;;;0.80;0.80;;;4.30;99.90;;;;;;5040076;27;20045;-88
2023/01/18 11:51:30;;;;;;;0.70;0.70;;;4.30;99.90;;;;;;5041349;27;20556;-86
2023/01/18 11:54:37;;;;;;;0.70;0.70;;;4.40;99.90;;;;;;5039009;27;20104;-86
2023/01/18 11:57:05;;;;;;;0.80;0.80;;;4.40;99.90;;;;;;5045166;27;20940;-86
2023/01/18 11:59:35;;;;;;;0.70;0.70;;;4.50;99.90;;;;;;5028349;27;20107;-85
2023/01/18 12:02:19;;;;;;;0.80;0.80;;;4.60;99.90;;;;;;5024036;27;20551;-84
2023/01/18 12:04:50;;;;;;;;;;;4.60;99.90;;;;;;5039924;27;20084;-86
2023/01/18 12:07:25;;;;;;;0.70;0.70;;;4.60;99.90;;;;;;5045286;27;20494;-86
2023/01/18 12:09:54;;;;;;;0.70;0.70;;;4.70;99.90;;;;;;5034197;27;20046;-85
2023/01/18 12:12:33;;;;;;;0.70;0.70;;;4.80;99.90;;;;;;5038687;27;20238;-85
2023/01/18 12:15:17;;;;;;;4.88;3.35;;;4.80;99.90;;;;;;5044724;27;20096;-86
2023/01/18 12:17:55;;;;;;;0.70;0.70;;;4.90;99.90;;;;;;5042412;27;20063;-85
2023/01/18 12:20:31;;;;;;;0.70;0.70;;;4.90;99.90;;;;;;5040847;27;20615;-86
2023/01/18 12:23:28;;;;;;;0.70;0.70;;;5.10;99.90;;;;;;5044307;27;20126;-86
2023/01/18 12:26:10;;;;;;;0.70;0.70;;;5.00;99.90;;;;;;5039637;27;20051;-86
2023/01/18 12:28:39;;;;;;;0.70;0.70;;;5.10;99.90;;;;;;5047693;27;20165;-85
2023/01/18 12:31:13;;;;;;;0.70;0.70;;;5.20;99.90;;;;;;5023784;28;20035;-85
2023/01/18 12:33:48;;;;;;;0.70;0.70;;;5.20;99.90;;;;;;5037714;27;20082;-84
2023/01/18 12:36:45;;;;;;;0.70;0.70;;;5.10;99.90;;;;;;5021822;27;20039;-85
2023/01/18 12:39:45;;;;;;;0.70;0.70;;;5.10;99.90;;;;;;5016029;27;20050;-86
2023/01/18 12:42:49;;;;;;;0.70;0.70;;;5.20;99.90;;;;;;5042945;27;20405;-85
2023/01/18 12:45:33;;;;;;;0.70;0.70;;;5.20;99.90;;;;;;5042636;27;20059;-85
2023/01/18 12:48:14;;;;;;;;;;;5.20;99.90;;;;;;5021792;27;20099;-85
2023/01/18 12:50:42;;;;;;;0.77;0.77;;;5.30;99.90;;;;;;5039114;27;20282;-84
2023/01/18 12:53:43;;;;;;;0.70;0.70;;;5.30;99.90;;;;;;5013932;27;20181;-85
2023/01/18 12:56:11;;;;;;;0.70;0.70;;;5.30;99.90;;;;;;5024105;28;20509;-86
2023/01/18 12:58:37;;;;;;;0.70;0.70;;;5.40;99.90;;;;;;5038578;28;20047;-86
2023/01/18 13:01:06;;;;;;;0.70;0.70;;;5.30;99.90;;;;;;5025479;28;20043;-85
2023/01/18 13:03:40;;;;;;;0.70;0.70;;;5.30;99.90;;;;;;5038653;28;20051;-85
2023/01/18 13:06:07;;;;;;;0.70;0.70;;;5.30;99.90;;;;;;5040425;28;20206;-85
2023/01/18 13:08:48;;;;;;;0.70;0.70;;;5.30;99.90;;;;;;5039316;28;20500;-86
2023/01/18 13:11:22;;;;;;;0.70;0.70;;;5.30;99.90;;;;;;5048460;28;20039;-84
2023/01/18 13:13:58;;;;;;;0.70;0.70;;;5.30;99.90;;;;;;5040660;28;20490;-83
2023/01/18 13:16:39;;;;;;;0.70;0.70;;;5.30;99.90;;;;;;5039478;28;20044;-85
2023/01/18 13:19:19;;;;;;;0.70;0.70;;;5.30;99.90;;;;;;5040282;28;20092;-86
2023/01/18 13:22:12;;;;;;;0.70;0.70;;;5.20;99.90;;;;;;5043265;28;20493;-86
2023/01/18 13:25:14;;;;;;;0.70;0.70;;;5.30;99.90;;;;;;5036995;28;20999;-85
2023/01/18 13:28:02;;;;;;;0.70;0.70;;;5.30;99.90;;;;;;5040073;28;20047;-86
2023/01/18 13:30:31;;;;;;;0.70;0.70;;;5.30;99.90;;;;;;5042058;28;20483;-85
2023/01/18 13:32:58;;;;;;;0.70;0.70;;;5.30;99.90;;;;;;5046393;27;20411;-85
2023/01/18 13:35:34;;;;;;;0.70;0.70;;;5.30;99.90;;;;;;5025782;27;20792;-85
2023/01/18 13:38:16;;;;;;;0.70;0.70;;;5.30;99.90;;;;;;5041653;27;20066;-85
2023/01/18 13:40:55;;;;;;;0.70;0.70;;;5.40;99.90;;;;;;5005891;27;20062;-84
2023/01/18 13:43:44;;;;;;;0.70;0.70;;;5.30;99.90;;;;;;5041211;27;20126;-86
2023/01/18 13:46:13;;;;;;;0.70;0.70;;;5.30;99.90;;;;;;5022754;27;20048;-84
2023/01/18 13:48:44;;;;;;;0.70;0.70;;;5.30;99.90;;;;;;5040871;27;20054;-85
2023/01/18 13:51:39;;;;;;;0.70;0.70;;;5.20;99.90;;;;;;5042916;27;20578;-85
2023/01/18 13:54:37;;;;;;;0.70;0.70;;;5.30;99.90;;;;;;5045699;27;20055;-85
2023/01/18 13:57:03;;;;;;;0.70;0.70;;;5.30;99.90;;;;;;5045401;27;20057;-86
2023/01/18 13:59:44;;;;;;;0.70;0.70;;;5.20;99.90;;;;;;5048397;27;20043;-85
2023/01/18 14:02:30;;;;;;;0.70;0.70;;;5.20;99.90;;;;;;5046695;27;20488;-84
2023/01/18 14:05:02;;;;;;;0.70;0.70;;;5.20;99.90;;;;;;5054254;27;20052;-85
2023/01/18 14:07:34;;;;;;;0.70;0.70;;;5.20;99.90;;;;;;5034910;27;20871;-85
2023/01/18 14:10:02;;;;;;;0.70;0.70;;;5.10;99.90;;;;;;5063468;27;20508;-85
2023/01/18 14:12:49;;;;;;;0.60;0.60;;;5.00;99.90;;;;;;5040318;27;20544;-86